עמוד ראשי
תמונות לווין תחזית 15-יוםאקליםתחזית ים סופות טרופיות ברק שדות תעופהשאלות נפוצות עלון אודות
מזג אוויר : אירופה אפריקה אמריקה הצפונית אמריקה הדרומית אסיה אוסטרליה-אוקיאניה אחר
שפות איש קשר

זלצבורג, אוסטריה

קו רוחב: 47-48N, קו אורך: 013-00E, גובה: 430 m


METAR: LOWS 260050Z AUTO 14003KT 100V180 9999 NCD 16/13 Q1013
short-TAF: מיושן (50137 שעות)
long-TAF: LOWS 251715Z 2518/2618 16006KT CAVOK TX27/2612Z TN12/2603Z BECMG 2607/2609 01006KT 9999 SCT060 BKN300 TEMPO 2613/2618 32015G30KT TSRA SCT035CB BKN050

זמן: 03:02 (01:02 UTC)

תצפית מזג אוויר נוכחית

הדו"ח נערך לפני 12 דקות, בשעה 00:50 UTC  
רוח 03 קשר מכיוון דרום-מזרח, משתנה בין מזרח ו דרום
טמפרטורת 16°C
לחות 82%
לחץ 1013 hPa
ראות 10 km או יותר

שינוי יחידות

תחזית

הדו"ח נערך לפני 7 שעות ו 41 דקות, בשעה 17:21 UTC  
תחזית בתוקף מ 25 ב 18 UTC עד 26 ב 18 UTC
רוח 06 קשר מכיוון דרום/דרום-מזרח
ראות 10 km או יותר
ללא עננים שבסיסם נמוך מ 1500 רגל או קומולונימבוס
יעשה מ
26 ב 07 UTC עד 26 ב 09 UTC
רוח 06 קשר מכיוון צפון
ראות 10 km או יותר
עננים פזורים בגובה 6000 ft
עננים בינוניים בגובה 30000 ft
זמנית מ -
26 ב 13 UTC עד 26 ב 18 UTC
רוח 15 קשר מכיוון צפון-מערב עם משבים עד 30 קשר
עננים פזורים בגובה 3500 ft , קומולונימבוס.
עננים בינוניים בגובה 5000 ft
סופת רעמים גשם
המידע באתר זה מותנה של תניית פטור
מזג אוויר : אירופה אפריקה אמריקה הצפונית אמריקה הדרומית אסיה אוסטרליה-אוקיאניה אחר
תמונות לווין תחזית 15-יוםאקליםתחזית ים סופות טרופיות ברק שדות תעופהשאלות נפוצות שפות איש קשר עלון אודות